Time;durP1;ratioP1;P1;durP2;ratioP2;P2;SDS_P1;SDS_P2;PMS_P1;PMS_P2;Temp;Humidity;BMP_temperature;BMP_pressure;BME280_temperature;BME280_humidity;BME280_pressure;Samples;Min_cycle;Max_cycle;Signal;HPM_P1;HPM_P2
2021/09/14 00:02:02;;;;;;;8.85;7.68;;;17.30;67.00;;;;;;5109969;28;20466;-69
2021/09/14 00:04:29;;;;;;;13.98;9.88;;;17.40;66.80;;;;;;5111264;28;20038;-67
2021/09/14 00:06:58;;;;;;;13.52;10.93;;;17.50;66.90;;;;;;5110961;28;20149;-69
2021/09/14 00:09:25;;;;;;;16.23;13.32;;;17.50;67.00;;;;;;5112564;28;20024;-71
2021/09/14 00:11:53;;;;;;;15.32;12.98;;;17.60;66.80;;;;;;5112894;28;20024;-70
2021/09/14 00:14:20;;;;;;;15.27;13.68;;;17.60;66.40;;;;;;5111946;28;20513;-68
2021/09/14 00:16:48;;;;;;;15.32;13.77;;;17.70;66.20;;;;;;5110754;28;20039;-68
2021/09/14 00:19:16;;;;;;;14.93;13.52;;;17.80;65.70;;;;;;5111401;28;20393;-69
2021/09/14 00:21:44;;;;;;;17.23;15.52;;;17.90;65.70;;;;;;5093004;28;20020;-70
2021/09/14 00:24:11;;;;;;;19.25;16.30;;;17.90;65.70;;;;;;5110947;28;20493;-69
2021/09/14 00:26:40;;;;;;;16.85;15.20;;;18.00;65.60;;;;;;5111037;28;20460;-69
2021/09/14 00:29:07;;;;;;;19.33;17.38;;;18.00;65.50;;;;;;5092976;28;20032;-72
2021/09/14 00:31:35;;;;;;;22.23;19.95;;;18.10;65.40;;;;;;5110943;28;20031;-67
2021/09/14 00:34:02;;;;;;;20.30;18.40;;;18.10;65.30;;;;;;5110833;28;20030;-70
2021/09/14 00:36:30;;;;;;;21.33;19.10;;;18.20;65.00;;;;;;5111432;28;21148;-74
2021/09/14 00:38:57;;;;;;;21.52;19.65;;;18.20;64.70;;;;;;5097274;28;20048;-66
2021/09/14 00:41:24;;;;;;;25.08;20.02;;;18.30;64.90;;;;;;5086855;28;20110;-67
2021/09/14 00:43:59;;;;;;;20.83;18.92;;;18.40;64.90;;;;;;5108774;28;20044;-71
2021/09/14 00:46:27;;;;;;;18.00;16.30;;;18.40;64.90;;;;;;5107090;28;20016;-70
2021/09/14 00:48:55;;;;;;;17.88;16.00;;;18.50;64.70;;;;;;5103372;28;20015;-70
2021/09/14 00:51:22;;;;;;;16.15;14.60;;;18.60;64.40;;;;;;5109181;28;20027;-66
2021/09/14 00:53:53;;;;;;;14.85;13.35;;;18.60;64.20;;;;;;5107473;28;20083;-63
2021/09/14 00:56:20;;;;;;;16.42;14.93;;;18.60;63.80;;;;;;5108453;28;20501;-60
2021/09/14 00:58:48;;;;;;;20.23;16.45;;;18.70;63.90;;;;;;5081166;28;20024;-67
2021/09/14 01:01:18;;;;;;;15.93;14.38;;;18.70;63.90;;;;;;5108837;28;20028;-64
2021/09/14 01:03:46;;;;;;;14.68;11.40;;;18.80;64.10;;;;;;5091150;28;20385;-69
2021/09/14 01:06:14;;;;;;;12.82;11.63;;;18.80;64.00;;;;;;5107571;28;20031;-69
2021/09/14 01:08:42;;;;;;;12.05;10.80;;;18.80;63.90;;;;;;5095599;28;20016;-65
2021/09/14 01:11:09;;;;;;;14.18;11.65;;;18.80;63.90;;;;;;5089362;28;20051;-68
2021/09/14 01:13:37;;;;;;;13.15;11.75;;;18.80;64.00;;;;;;5108718;28;20022;-67
2021/09/14 01:16:07;;;;;;;10.63;9.50;;;18.80;64.10;;;;;;5107439;28;20063;-66
2021/09/14 01:18:34;;;;;;;10.77;9.75;;;18.80;64.00;;;;;;5098929;28;20462;-67
2021/09/14 01:21:04;;;;;;;10.98;9.90;;;18.80;64.10;;;;;;5107821;28;20481;-66
2021/09/14 01:23:32;;;;;;;12.20;8.77;;;18.80;64.20;;;;;;5108373;28;20024;-66
2021/09/14 01:26:00;;;;;;;12.60;9.75;;;18.80;64.10;;;;;;5095208;28;20382;-66
2021/09/14 01:28:27;;;;;;;12.43;8.45;;;18.80;64.20;;;;;;5078240;28;20034;-64
2021/09/14 01:30:55;;;;;;;14.57;9.55;;;18.80;64.30;;;;;;5102994;28;20023;-72
2021/09/14 01:33:22;;;;;;;9.80;8.48;;;18.80;64.40;;;;;;5112263;28;20031;-74
2021/09/14 01:35:50;;;;;;;8.52;7.65;;;18.80;64.20;;;;;;5111976;28;20063;-76
2021/09/14 01:38:23;;;;;;;9.35;7.75;;;18.70;64.40;;;;;;5110162;28;20027;-73
2021/09/14 01:40:50;;;;;;;8.68;6.93;;;18.70;64.80;;;;;;5110836;28;20098;-77
2021/09/14 01:43:19;;;;;;;10.10;7.88;;;18.70;64.80;;;;;;5093658;28;20044;-77
2021/09/14 01:45:46;;;;;;;9.73;8.55;;;18.70;64.70;;;;;;5095069;28;20130;-77
2021/09/14 01:48:14;;;;;;;8.85;7.40;;;18.70;65.10;;;;;;5098902;28;20398;-77
2021/09/14 01:50:42;;;;;;;7.60;6.47;;;18.70;64.90;;;;;;5090117;28;20117;-74
2021/09/14 01:53:09;;;;;;;9.35;7.45;;;18.70;65.10;;;;;;5090738;28;20073;-73
2021/09/14 01:55:37;;;;;;;7.07;6.45;;;18.60;65.30;;;;;;5090599;28;20085;-77
2021/09/14 01:58:07;;;;;;;10.48;7.45;;;18.60;65.50;;;;;;5089577;28;20116;-75
2021/09/14 02:00:38;;;;;;;8.75;7.40;;;18.60;65.60;;;;;;5089559;28;20012;-75
2021/09/14 02:05:55;;;;;;;8.25;6.28;;;18.70;65.40;;;;;;5091097;28;20014;-72
2021/09/14 02:39:07;;;;;;;5.90;4.43;;;18.40;68.40;;;;;;5090273;28;21243;-75
2021/09/14 03:00:46;;;;;;;5.75;3.83;;;18.60;68.10;;;;;;5090896;28;20027;-66
2021/09/14 03:03:14;;;;;;;5.63;3.60;;;18.60;68.00;;;;;;5105307;28;20030;-69
2021/09/14 03:05:41;;;;;;;4.47;3.50;;;18.60;68.40;;;;;;5082390;28;20055;-70
2021/09/14 03:08:08;;;;;;;6.47;3.33;;;18.60;68.20;;;;;;5096067;28;20031;-65
2021/09/14 03:10:36;;;;;;;4.25;2.95;;;18.60;68.40;;;;;;5107198;28;20034;-71
2021/09/14 03:13:06;;;;;;;5.20;3.08;;;18.60;68.50;;;;;;5105269;28;20483;-64
2021/09/14 03:15:34;;;;;;;4.90;3.80;;;18.60;68.50;;;;;;5107249;28;20046;-61
2021/09/14 03:18:07;;;;;;;6.30;3.03;;;18.60;68.60;;;;;;5078819;28;20027;-62
2021/09/14 03:20:35;;;;;;;5.10;3.30;;;18.60;68.70;;;;;;5107055;28;20407;-70
2021/09/14 03:23:03;;;;;;;4.78;3.13;;;18.60;68.70;;;;;;5104765;28;20173;-66
2021/09/14 03:25:30;;;;;;;4.22;3.00;;;18.60;69.00;;;;;;5106842;28;20035;-71
2021/09/14 03:27:58;;;;;;;6.10;3.33;;;18.60;69.30;;;;;;5078368;28;20235;-68
2021/09/14 03:30:28;;;;;;;3.90;2.97;;;18.50;69.10;;;;;;5109544;28;20051;-68
2021/09/14 03:32:56;;;;;;;3.00;2.70;;;18.60;69.00;;;;;;5107611;28;20427;-65
2021/09/14 03:35:23;;;;;;;4.18;3.22;;;18.50;69.10;;;;;;5110599;28;20031;-70
2021/09/14 03:37:51;;;;;;;4.28;3.03;;;18.60;69.10;;;;;;5100234;28;20031;-65
2021/09/14 03:40:18;;;;;;;7.28;3.00;;;18.50;69.10;;;;;;5110021;28;20378;-66
2021/09/14 03:42:46;;;;;;;4.57;2.85;;;18.50;69.20;;;;;;5110558;28;20016;-66
2021/09/14 03:45:13;;;;;;;4.00;2.72;;;18.50;69.40;;;;;;5104956;28;20032;-70
2021/09/14 03:47:44;;;;;;;3.85;2.58;;;18.50;69.50;;;;;;5084727;28;20039;-69
2021/09/14 03:50:12;;;;;;;4.32;3.00;;;18.50;69.70;;;;;;5108069;28;20063;-67
2021/09/14 03:52:40;;;;;;;7.35;2.60;;;18.50;69.80;;;;;;5109406;28;20034;-68
2021/09/14 03:55:08;;;;;;;3.88;2.35;;;18.50;69.80;;;;;;5110082;27;20093;-67
2021/09/14 03:57:36;;;;;;;3.42;2.30;;;18.50;69.90;;;;;;5104256;28;20023;-64
2021/09/14 04:00:05;;;;;;;3.88;2.33;;;18.50;70.00;;;;;;5109943;28;20030;-66
2021/09/14 04:02:40;;;;;;;5.43;2.40;;;18.50;69.80;;;;;;5105186;28;20023;-61
2021/09/14 04:05:26;;;;;;;5.05;2.30;;;18.40;70.00;;;;;;5109774;28;20156;-67
2021/09/14 04:08:50;;;;;;;3.58;2.40;;;18.40;70.10;;;;;;5103479;28;20028;-63
2021/09/14 04:10:44;;;;;;;3.20;2.50;;;18.40;70.30;;;;;;5110723;28;20481;-73
2021/09/14 04:13:15;;;;;;;4.00;2.20;;;18.40;70.50;;;;;;5109333;28;20032;-70
2021/09/14 04:15:42;;;;;;;7.57;2.05;;;18.30;70.50;;;;;;5109688;28;20038;-65
2021/09/14 04:18:10;;;;;;;4.63;2.00;;;18.30;70.80;;;;;;5102753;28;20034;-67
2021/09/14 04:20:38;;;;;;;4.40;2.60;;;18.30;70.90;;;;;;5090771;28;20103;-68
2021/09/14 04:23:05;;;;;;;4.97;2.85;;;18.30;71.10;;;;;;5107878;28;20035;-66
2021/09/14 04:25:33;;;;;;;3.28;1.90;;;18.20;71.10;;;;;;5107476;28;20023;-65
2021/09/14 04:28:09;;;;;;;3.35;2.13;;;18.30;71.20;;;;;;5100627;28;20059;-67
2021/09/14 04:30:40;;;;;;;5.93;2.45;;;18.20;71.30;;;;;;5103358;28;21212;-67
2021/09/14 04:33:16;;;;;;;3.33;2.33;;;18.20;71.40;;;;;;5105128;28;20434;-65
2021/09/14 04:35:43;;;;;;;4.15;1.70;;;18.20;71.50;;;;;;5108315;28;21036;-65
2021/09/14 04:38:11;;;;;;;4.78;2.20;;;18.20;71.60;;;;;;5100885;28;20163;-64
2021/09/14 04:40:38;;;;;;;4.32;2.45;;;18.10;71.50;;;;;;5107427;28;20067;-67
2021/09/14 04:43:05;;;;;;;5.10;2.10;;;18.10;71.70;;;;;;5106429;28;20051;-68
2021/09/14 04:45:46;;;;;;;7.35;2.38;;;18.10;71.80;;;;;;5087795;28;20024;-69
2021/09/14 04:48:13;;;;;;;3.78;2.00;;;18.10;72.00;;;;;;5099082;28;20025;-69
2021/09/14 04:50:41;;;;;;;3.33;2.15;;;18.10;72.00;;;;;;5109381;28;20482;-66
2021/09/14 04:53:08;;;;;;;4.50;2.50;;;18.10;72.20;;;;;;5106988;28;20525;-68
2021/09/14 04:55:37;;;;;;;5.45;2.13;;;18.10;72.20;;;;;;5108847;28;20124;-65
2021/09/14 04:58:04;;;;;;;4.70;1.80;;;18.00;72.40;;;;;;5104319;28;20039;-68
2021/09/14 05:00:32;;;;;;;3.05;1.52;;;18.00;72.60;;;;;;5108102;28;20028;-65
2021/09/14 05:02:59;;;;;;;3.15;1.70;;;17.90;72.80;;;;;;5106851;28;20035;-64
2021/09/14 05:05:27;;;;;;;4.68;1.83;;;18.00;72.90;;;;;;5108888;28;20023;-69
2021/09/14 05:07:54;;;;;;;3.97;1.90;;;18.00;72.80;;;;;;5102988;28;20157;-70
2021/09/14 05:10:23;;;;;;;4.20;2.25;;;18.00;72.80;;;;;;5096185;28;20020;-64
2021/09/14 05:12:50;;;;;;;6.07;1.50;;;18.00;72.90;;;;;;5088833;28;20068;-67
2021/09/14 05:15:17;;;;;;;3.40;1.50;;;17.90;72.70;;;;;;5107838;28;20034;-69
2021/09/14 05:17:45;;;;;;;4.70;2.10;;;18.00;73.00;;;;;;5097298;28;20118;-73
2021/09/14 05:20:14;;;;;;;5.18;2.05;;;18.00;73.00;;;;;;5100889;28;20062;-70
2021/09/14 05:22:42;;;;;;;2.78;1.67;;;18.00;72.90;;;;;;5106945;28;20027;-64
2021/09/14 05:25:10;;;;;;;5.00;2.30;;;18.00;73.00;;;;;;5107674;28;20031;-72
2021/09/14 05:27:38;;;;;;;3.15;1.70;;;18.00;72.80;;;;;;5097440;28;20028;-68
2021/09/14 05:30:06;;;;;;;4.80;1.90;;;17.90;72.80;;;;;;5108356;28;20039;-67
2021/09/14 05:32:34;;;;;;;5.97;1.85;;;18.00;72.80;;;;;;5106289;28;20024;-68
2021/09/14 05:35:02;;;;;;;3.17;1.70;;;18.00;72.70;;;;;;5107529;28;20036;-66
2021/09/14 05:37:29;;;;;;;3.70;1.48;;;18.00;72.40;;;;;;5101973;28;20046;-65
2021/09/14 05:40:03;;;;;;;2.58;1.77;;;18.10;72.30;;;;;;5107969;28;20070;-71
2021/09/14 05:42:31;;;;;;;2.08;1.52;;;18.10;72.30;;;;;;5106912;28;21180;-72
2021/09/14 05:44:58;;;;;;;3.88;2.05;;;18.10;72.30;;;;;;5105375;28;20056;-74
2021/09/14 05:47:26;;;;;;;2.80;1.55;;;18.10;72.20;;;;;;5100219;28;20099;-72
2021/09/14 05:49:53;;;;;;;2.97;1.50;;;18.10;72.50;;;;;;5093045;28;20028;-74
2021/09/14 05:52:21;;;;;;;4.07;1.90;;;18.10;72.40;;;;;;5110328;28;20167;-72
2021/09/14 05:54:48;;;;;;;4.22;1.63;;;18.10;72.60;;;;;;5110456;28;20039;-73
2021/09/14 05:57:17;;;;;;;4.28;1.50;;;18.10;72.70;;;;;;5113005;28;20032;-77
2021/09/14 05:59:44;;;;;;;4.50;1.65;;;18.00;72.80;;;;;;5112417;28;20035;-72
2021/09/14 06:02:12;;;;;;;1.88;1.13;;;18.00;72.80;;;;;;5112067;28;20131;-74
2021/09/14 06:04:39;;;;;;;4.57;1.88;;;18.00;72.80;;;;;;5114234;28;20023;-73
2021/09/14 06:07:06;;;;;;;2.95;1.25;;;17.90;73.00;;;;;;5112787;28;20108;-77
2021/09/14 06:09:34;;;;;;;3.17;1.38;;;17.90;73.10;;;;;;5113003;28;20023;-75
2021/09/14 06:12:01;;;;;;;3.80;1.55;;;17.90;73.20;;;;;;5111764;28;20042;-77
2021/09/14 06:14:29;;;;;;;4.55;1.73;;;17.80;73.30;;;;;;5114459;28;20051;-76
2021/09/14 06:16:56;;;;;;;4.47;1.85;;;17.80;73.30;;;;;;5112065;28;20039;-74
2021/09/14 06:19:23;;;;;;;2.65;1.33;;;17.80;73.30;;;;;;5110480;28;20073;-70
2021/09/14 06:21:51;;;;;;;3.53;1.50;;;17.80;73.20;;;;;;5110548;28;20008;-77
2021/09/14 06:24:18;;;;;;;4.00;1.52;;;17.80;73.10;;;;;;5110211;28;20020;-76
2021/09/14 06:26:45;;;;;;;4.60;1.73;;;17.80;73.10;;;;;;5111254;28;20020;-78
2021/09/14 06:29:13;;;;;;;3.42;1.40;;;17.70;73.00;;;;;;5112721;28;20489;-73
2021/09/14 06:31:40;;;;;;;8.00;1.65;;;17.80;73.20;;;;;;5110600;28;20024;-71
2021/09/14 06:34:08;;;;;;;2.53;1.17;;;17.80;73.00;;;;;;5112076;28;20043;-76
2021/09/14 06:36:35;;;;;;;4.97;1.73;;;17.80;73.10;;;;;;5111080;28;20417;-70
2021/09/14 06:39:03;;;;;;;3.83;1.20;;;17.80;73.20;;;;;;5111088;28;20470;-72
2021/09/14 06:41:31;;;;;;;4.20;1.52;;;17.70;73.10;;;;;;5073226;28;20031;-70
2021/09/14 06:43:59;;;;;;;3.08;1.35;;;17.80;73.00;;;;;;5088895;28;20398;-68
2021/09/14 06:46:26;;;;;;;2.88;1.30;;;17.70;72.90;;;;;;5089040;28;20015;-66
2021/09/14 06:48:54;;;;;;;5.97;1.65;;;17.70;73.10;;;;;;5096549;28;20069;-67
2021/09/14 06:51:22;;;;;;;4.70;2.00;;;17.70;72.90;;;;;;5102977;28;20027;-73
2021/09/14 06:53:50;;;;;;;3.58;1.42;;;17.80;73.00;;;;;;5087941;28;20024;-68
2021/09/14 06:56:18;;;;;;;4.07;1.67;;;17.80;73.00;;;;;;5106485;28;20030;-66
2021/09/14 06:58:46;;;;;;;9.68;2.47;;;17.70;72.70;;;;;;5098440;28;20026;-68
2021/09/14 07:01:20;;;;;;;3.85;1.20;;;17.80;72.60;;;;;;5105183;28;20412;-67
2021/09/14 07:03:48;;;;;;;3.72;1.15;;;17.80;72.60;;;;;;5103641;28;20019;-67
2021/09/14 07:06:16;;;;;;;3.25;1.65;;;17.80;72.30;;;;;;5110293;27;20431;-73
2021/09/14 07:08:47;;;;;;;5.10;1.50;;;17.80;72.50;;;;;;5105613;28;20399;-66
2021/09/14 07:11:15;;;;;;;3.90;1.33;;;17.80;72.40;;;;;;5108733;28;20031;-70
2021/09/14 07:13:43;;;;;;;3.40;1.25;;;17.80;72.20;;;;;;5110261;28;20077;-70
2021/09/14 07:16:14;;;;;;;5.00;1.35;;;17.80;72.10;;;;;;5112120;27;20063;-68
2021/09/14 07:18:42;;;;;;;4.97;1.35;;;17.90;72.10;;;;;;5105382;28;20062;-73
2021/09/14 07:21:12;;;;;;;5.15;0.90;;;17.90;72.00;;;;;;5107943;28;20012;-71
2021/09/14 07:23:44;;;;;;;2.15;1.10;;;17.80;72.00;;;;;;5110557;28;20031;-70
2021/09/14 07:26:11;;;;;;;9.32;1.50;;;17.80;72.00;;;;;;5110343;28;20474;-70
2021/09/14 07:28:39;;;;;;;4.10;1.40;;;17.80;72.10;;;;;;5103493;27;20024;-69
2021/09/14 07:31:08;;;;;;;3.33;1.15;;;17.80;72.00;;;;;;5109077;28;20028;-69
2021/09/14 07:33:35;;;;;;;3.22;1.10;;;17.80;72.00;;;;;;5110530;28;20008;-70
2021/09/14 07:36:03;;;;;;;3.33;1.15;;;17.70;72.00;;;;;;5110662;28;20031;-69
2021/09/14 07:38:30;;;;;;;2.60;1.13;;;17.70;72.00;;;;;;5103610;28;20073;-69
2021/09/14 07:40:58;;;;;;;3.40;1.27;;;17.80;72.00;;;;;;5110546;28;20049;-69
2021/09/14 07:43:25;;;;;;;3.20;1.17;;;17.70;72.00;;;;;;5088860;28;20048;-71
2021/09/14 07:45:52;;;;;;;4.50;0.85;;;17.70;72.00;;;;;;5088969;28;20020;-71
2021/09/14 07:48:20;;;;;;;3.05;1.20;;;17.70;71.90;;;;;;5079645;28;20017;-70
2021/09/14 07:50:48;;;;;;;3.28;1.20;;;17.60;72.10;;;;;;5071606;28;20031;-74
2021/09/14 07:53:15;;;;;;;2.92;1.00;;;17.60;72.30;;;;;;5071322;28;20052;-71
2021/09/14 07:55:42;;;;;;;3.13;1.27;;;17.60;72.20;;;;;;5076635;28;20115;-71
2021/09/14 07:58:10;;;;;;;3.80;1.20;;;17.60;72.20;;;;;;5088978;28;20028;-70
2021/09/14 08:00:37;;;;;;;3.40;0.90;;;17.50;72.30;;;;;;5091371;28;20843;-74
2021/09/14 08:03:05;;;;;;;4.10;1.50;;;17.50;72.20;;;;;;5091062;28;20383;-69
2021/09/14 08:05:42;;;;;;;2.53;1.20;;;17.50;72.30;;;;;;5091037;28;20028;-70
2021/09/14 08:08:09;;;;;;;6.78;1.08;;;17.50;72.30;;;;;;5091217;28;20024;-67
2021/09/14 08:10:37;;;;;;;3.28;1.50;;;17.50;72.20;;;;;;5091059;28;20028;-71
2021/09/14 08:13:05;;;;;;;2.55;1.20;;;17.40;72.30;;;;;;5090838;28;20028;-67
2021/09/14 08:15:33;;;;;;;3.88;1.25;;;17.50;72.50;;;;;;5091234;28;20381;-68
2021/09/14 08:18:00;;;;;;;3.83;1.23;;;17.50;72.40;;;;;;5091693;28;20024;-66
2021/09/14 08:20:27;;;;;;;2.35;1.10;;;17.50;72.50;;;;;;5091773;28;20019;-70
2021/09/14 08:22:55;;;;;;;2.42;0.93;;;17.40;72.40;;;;;;5091130;28;20024;-68
2021/09/14 08:25:22;;;;;;;3.55;1.25;;;17.40;72.40;;;;;;5091948;28;20099;-69
2021/09/14 08:27:50;;;;;;;7.10;1.40;;;17.40;72.50;;;;;;5092372;28;20096;-67
2021/09/14 08:30:17;;;;;;;3.45;1.48;;;17.40;72.70;;;;;;5092954;28;20115;-68
2021/09/14 08:32:45;;;;;;;3.70;1.20;;;17.40;72.70;;;;;;5090883;28;20077;-69
2021/09/14 08:35:13;;;;;;;2.92;1.02;;;17.40;72.60;;;;;;5090259;28;20016;-72
2021/09/14 08:37:40;;;;;;;3.20;1.30;;;17.30;72.60;;;;;;5090924;28;20707;-66
2021/09/14 08:40:09;;;;;;;2.63;1.10;;;17.40;72.70;;;;;;5088471;28;20032;-67
2021/09/14 08:42:38;;;;;;;4.00;1.13;;;17.30;72.80;;;;;;5090719;28;20032;-71
2021/09/14 08:45:08;;;;;;;3.10;1.05;;;17.30;72.70;;;;;;5083972;28;20393;-70
2021/09/14 08:47:38;;;;;;;6.82;1.25;;;17.30;72.80;;;;;;5090838;28;20024;-70
2021/09/14 08:50:07;;;;;;;4.57;1.23;;;17.30;72.90;;;;;;5090317;28;20028;-67
2021/09/14 08:52:35;;;;;;;6.93;1.38;;;17.30;72.90;;;;;;5090518;28;20028;-71
2021/09/14 08:55:03;;;;;;;2.80;1.13;;;17.30;72.80;;;;;;5090176;28;20126;-71
2021/09/14 08:57:30;;;;;;;3.70;1.15;;;17.30;73.00;;;;;;5088854;28;20028;-72
2021/09/14 08:59:58;;;;;;;2.72;1.08;;;17.30;73.00;;;;;;5090427;28;20020;-70
2021/09/14 09:02:26;;;;;;;2.28;1.05;;;17.30;73.00;;;;;;5091165;28;20409;-74
2021/09/14 09:04:57;;;;;;;1.90;0.98;;;17.30;72.90;;;;;;5087566;28;20020;-69
2021/09/14 09:07:45;;;;;;;5.30;1.10;;;17.20;73.00;;;;;;5091467;28;20043;-70
2021/09/14 09:10:17;;;;;;;2.40;1.33;;;17.20;72.90;;;;;;5081907;28;20032;-64
2021/09/14 09:12:47;;;;;;;3.55;1.17;;;17.20;73.80;;;;;;5087096;28;20412;-73
2021/09/14 09:15:26;;;;;;;8.25;1.42;;;17.20;75.90;;;;;;5077856;28;20081;-67
2021/09/14 09:18:10;;;;;;;3.08;1.05;;;17.20;76.00;;;;;;5088852;28;20028;-69
2021/09/14 09:20:40;;;;;;;2.55;1.02;;;17.20;75.40;;;;;;5078217;28;20374;-70
2021/09/14 09:23:17;;;;;;;2.47;1.45;;;17.20;75.00;;;;;;5084202;28;20024;-68
2021/09/14 09:25:45;;;;;;;2.40;1.10;;;17.20;74.70;;;;;;5083409;28;20042;-72
2021/09/14 09:28:20;;;;;;;3.05;1.30;;;17.20;74.50;;;;;;5088030;28;20383;-67
2021/09/14 09:31:08;;;;;;;3.65;1.38;;;17.20;74.30;;;;;;5070744;28;20793;-71
2021/09/14 09:33:58;;;;;;;6.03;1.90;;;17.30;74.20;;;;;;5082932;28;20020;-71
2021/09/14 09:36:31;;;;;;;4.75;1.30;;;17.30;74.00;;;;;;5082930;28;20083;-69
2021/09/14 09:39:04;;;;;;;3.92;1.52;;;17.20;73.80;;;;;;5086100;28;20108;-75
2021/09/14 09:41:38;;;;;;;1.73;0.85;;;17.20;73.90;;;;;;5077471;28;20028;-71
2021/09/14 09:44:12;;;;;;;1.83;0.90;;;17.20;74.20;;;;;;5082293;28;20020;-72
2021/09/14 09:46:42;;;;;;;11.25;1.15;;;17.20;74.00;;;;;;5109589;28;20130;-65
2021/09/14 09:49:14;;;;;;;1.85;0.60;;;17.30;73.90;;;;;;5106242;28;20042;-64
2021/09/14 09:51:58;;;;;;;2.60;0.88;;;17.20;73.70;;;;;;5097760;28;20475;-68
2021/09/14 09:54:26;;;;;;;5.65;1.05;;;17.20;73.70;;;;;;5107944;28;20374;-72
2021/09/14 09:56:56;;;;;;;2.63;1.10;;;17.30;73.50;;;;;;5107121;28;20080;-70
2021/09/14 09:59:33;;;;;;;6.00;1.50;;;17.30;73.50;;;;;;5105457;27;20059;-68
2021/09/14 10:02:19;;;;;;;2.28;0.80;;;17.30;73.30;;;;;;5104123;28;20028;-70
2021/09/14 10:05:02;;;;;;;2.17;1.02;;;17.30;73.20;;;;;;5108309;28;20019;-66
2021/09/14 10:07:32;;;;;;;2.90;1.17;;;17.30;73.10;;;;;;5106696;28;20031;-69
2021/09/14 10:10:01;;;;;;;2.55;1.10;;;17.20;73.20;;;;;;5079259;28;20020;-73
2021/09/14 10:12:31;;;;;;;2.88;0.95;;;17.30;73.10;;;;;;5103935;28;20024;-69
2021/09/14 10:15:11;;;;;;;2.97;1.25;;;17.30;73.20;;;;;;5090629;28;20019;-67
2021/09/14 10:17:55;;;;;;;3.00;1.27;;;17.20;73.00;;;;;;5103026;28;20032;-62
2021/09/14 10:20:25;;;;;;;3.50;1.00;;;17.20;73.00;;;;;;5096942;28;20388;-62
2021/09/14 10:23:05;;;;;;;3.42;1.00;;;17.20;73.00;;;;;;5103671;28;20020;-62
2021/09/14 10:25:34;;;;;;;3.92;1.02;;;17.20;73.00;;;;;;5107536;28;20381;-67
2021/09/14 10:28:10;;;;;;;4.07;1.15;;;17.20;73.00;;;;;;5104674;28;20417;-71
2021/09/14 10:30:38;;;;;;;7.03;0.93;;;17.20;72.90;;;;;;5095746;28;20183;-67
2021/09/14 10:33:09;;;;;;;2.60;0.95;;;17.20;72.90;;;;;;5089952;28;20386;-68
2021/09/14 10:35:45;;;;;;;1.77;1.10;;;17.20;72.90;;;;;;5105963;28;20057;-68
2021/09/14 10:38:14;;;;;;;4.00;1.10;;;17.20;72.90;;;;;;5107892;28;20031;-69
2021/09/14 10:40:54;;;;;;;2.40;1.08;;;17.20;72.80;;;;;;5102073;28;20016;-69
2021/09/14 10:43:28;;;;;;;3.88;1.20;;;17.20;72.80;;;;;;5109650;28;20020;-76
2021/09/14 10:45:57;;;;;;;3.45;1.10;;;17.20;72.90;;;;;;5111020;28;20048;-71
2021/09/14 10:48:46;;;;;;;1.98;0.80;;;17.20;72.80;;;;;;5113092;27;20096;-66
2021/09/14 10:51:18;;;;;;;4.32;0.90;;;17.20;72.90;;;;;;5102026;28;20165;-66
2021/09/14 10:53:59;;;;;;;2.83;1.33;;;17.10;72.70;;;;;;5112622;28;20111;-70
2021/09/14 10:56:29;;;;;;;2.33;0.90;;;17.10;72.70;;;;;;5113911;28;20111;-66
2021/09/14 10:58:57;;;;;;;2.95;0.90;;;17.10;72.70;;;;;;5107711;28;20031;-70
2021/09/14 11:01:25;;;;;;;3.38;0.88;;;17.10;72.70;;;;;;5098839;28;20072;-70
2021/09/14 11:04:13;;;;;;;2.20;1.05;;;17.10;72.70;;;;;;5111420;28;20034;-66
2021/09/14 11:06:40;;;;;;;2.10;1.05;;;17.10;72.60;;;;;;5108283;28;20115;-71
2021/09/14 11:09:07;;;;;;;4.00;1.20;;;17.10;72.70;;;;;;5111753;28;20028;-69
2021/09/14 11:11:35;;;;;;;3.88;0.80;;;17.10;72.60;;;;;;5104628;28;20027;-67
2021/09/14 11:14:02;;;;;;;3.15;1.00;;;17.10;72.60;;;;;;5112612;28;20036;-71
2021/09/14 11:16:30;;;;;;;2.70;1.27;;;17.00;72.70;;;;;;5114000;28;20032;-71
2021/09/14 11:19:01;;;;;;;3.35;1.50;;;17.10;72.80;;;;;;5110975;28;20031;-70
2021/09/14 11:21:28;;;;;;;3.60;0.90;;;17.00;72.60;;;;;;5099373;28;20425;-70
2021/09/14 11:23:56;;;;;;;2.70;0.90;;;17.10;72.60;;;;;;5113395;28;20111;-72
2021/09/14 11:26:27;;;;;;;2.78;1.30;;;17.10;72.60;;;;;;5113957;28;20438;-69
2021/09/14 11:28:58;;;;;;;3.17;1.00;;;17.00;72.60;;;;;;5113446;28;20046;-67
2021/09/14 11:31:35;;;;;;;3.50;0.90;;;17.10;72.60;;;;;;5103903;28;20440;-70
2021/09/14 11:34:03;;;;;;;1.88;0.93;;;17.00;72.60;;;;;;5112113;28;20028;-71
2021/09/14 11:36:30;;;;;;;3.17;1.00;;;17.00;72.50;;;;;;5111933;28;20036;-72
2021/09/14 11:39:04;;;;;;;3.35;1.48;;;17.00;72.50;;;;;;5111499;27;20020;-65
2021/09/14 11:41:43;;;;;;;2.45;0.90;;;17.00;72.60;;;;;;5102076;28;20024;-67
2021/09/14 11:44:10;;;;;;;2.25;0.95;;;17.00;72.50;;;;;;5109936;28;20031;-65
2021/09/14 11:46:50;;;;;;;2.03;0.95;;;17.00;72.60;;;;;;5110090;28;20031;-67
2021/09/14 11:49:17;;;;;;;4.03;1.15;;;17.00;72.50;;;;;;5110367;28;20028;-65
2021/09/14 11:51:45;;;;;;;3.65;1.05;;;17.00;72.60;;;;;;5099843;28;20065;-69
2021/09/14 11:54:14;;;;;;;1.50;0.80;;;17.00;72.50;;;;;;5098487;28;20028;-75
2021/09/14 11:56:42;;;;;;;4.95;1.23;;;17.00;72.60;;;;;;5099744;28;20031;-72
2021/09/14 11:59:17;;;;;;;1.77;0.75;;;16.90;72.50;;;;;;5116562;28;20024;-68
2021/09/14 12:01:45;;;;;;;2.55;0.70;;;16.90;72.40;;;;;;5117183;28;20032;-73
2021/09/14 12:04:17;;;;;;;1.63;0.60;;;16.90;72.60;;;;;;5117879;28;20047;-73
2021/09/14 12:06:52;;;;;;;3.00;1.27;;;16.90;72.50;;;;;;5120460;28;20027;-69
2021/09/14 12:09:21;;;;;;;4.63;1.20;;;16.90;72.50;;;;;;5123555;28;20035;-69
2021/09/14 12:12:09;;;;;;;4.25;1.23;;;16.90;72.50;;;;;;5118710;28;20056;-71
2021/09/14 12:14:36;;;;;;;1.35;0.82;;;16.80;72.50;;;;;;5121076;28;20032;-70
2021/09/14 12:17:06;;;;;;;3.47;0.85;;;16.80;72.50;;;;;;5119917;28;20397;-70
2021/09/14 12:19:37;;;;;;;4.55;1.45;;;16.80;72.60;;;;;;5102144;28;20028;-67
2021/09/14 12:22:06;;;;;;;3.10;1.10;;;16.80;72.60;;;;;;5119362;28;20020;-69
2021/09/14 12:24:33;;;;;;;2.38;0.95;;;16.80;72.70;;;;;;5119829;28;20023;-66
2021/09/14 12:27:01;;;;;;;1.90;0.88;;;16.80;72.70;;;;;;5117877;28;20016;-72
2021/09/14 12:29:29;;;;;;;4.15;1.10;;;16.80;72.80;;;;;;5118490;28;20015;-70
2021/09/14 12:31:56;;;;;;;3.67;0.90;;;16.80;72.80;;;;;;5118047;28;20031;-71
2021/09/14 12:34:24;;;;;;;3.83;0.85;;;16.80;72.80;;;;;;5116118;28;20031;-71
2021/09/14 12:36:51;;;;;;;4.28;1.02;;;16.70;72.80;;;;;;5113860;28;20038;-69
2021/09/14 12:39:21;;;;;;;1.92;0.73;;;16.70;72.90;;;;;;5112551;28;20027;-67
2021/09/14 12:41:49;;;;;;;3.72;0.90;;;16.70;72.90;;;;;;5112505;28;20019;-66
2021/09/14 12:44:20;;;;;;;4.50;1.00;;;16.70;73.00;;;;;;5116113;28;20040;-69
2021/09/14 12:46:48;;;;;;;1.83;0.90;;;16.70;73.00;;;;;;5115177;28;20381;-67
2021/09/14 12:49:16;;;;;;;2.53;1.00;;;16.70;73.00;;;;;;5116499;28;20031;-66
2021/09/14 12:51:43;;;;;;;1.73;0.70;;;16.70;73.00;;;;;;5100371;28;20027;-68
2021/09/14 12:54:11;;;;;;;3.38;0.80;;;16.70;73.00;;;;;;5119342;28;20027;-69
2021/09/14 12:56:38;;;;;;;1.70;0.75;;;16.70;73.10;;;;;;5118344;28;20035;-72
2021/09/14 12:59:06;;;;;;;5.50;0.80;;;16.60;73.10;;;;;;5118936;28;20020;-69
2021/09/14 13:01:36;;;;;;;5.38;1.10;;;16.60;73.10;;;;;;5117549;28;20023;-65
2021/09/14 13:04:04;;;;;;;2.30;0.77;;;16.60;73.10;;;;;;5118464;28;20039;-74
2021/09/14 13:06:31;;;;;;;3.22;1.05;;;16.60;73.10;;;;;;5119842;28;20026;-66
2021/09/14 13:08:59;;;;;;;2.88;1.05;;;16.60;73.20;;;;;;5104478;28;20023;-71
2021/09/14 13:11:26;;;;;;;4.70;0.73;;;16.60;73.10;;;;;;5120015;28;20016;-68
2021/09/14 13:16:39;;;;;;;2.55;0.93;;;16.60;73.20;;;;;;5119058;28;20043;-70
2021/09/14 13:19:06;;;;;;;3.15;0.98;;;16.60;73.30;;;;;;5116573;28;20030;-68
2021/09/14 13:21:34;;;;;;;3.40;0.93;;;16.60;73.30;;;;;;5118607;28;20020;-73
2021/09/14 13:24:01;;;;;;;2.22;1.02;;;16.60;73.30;;;;;;5118149;28;20043;-68
2021/09/14 13:26:29;;;;;;;2.42;0.90;;;16.50;73.30;;;;;;5119769;28;20015;-68
2021/09/14 13:28:56;;;;;;;5.88;0.85;;;16.50;73.30;;;;;;5100428;28;20030;-73
2021/09/14 13:31:23;;;;;;;2.45;1.05;;;16.50;73.30;;;;;;5117831;28;20031;-68
2021/09/14 13:33:51;;;;;;;3.20;1.05;;;16.50;73.30;;;;;;5115769;28;20035;-71
2021/09/14 13:36:19;;;;;;;1.63;0.85;;;16.50;73.30;;;;;;5115831;28;20043;-71
2021/09/14 13:38:47;;;;;;;3.28;1.00;;;16.50;73.30;;;;;;5115706;28;20026;-68
2021/09/14 13:41:16;;;;;;;3.00;1.05;;;16.50;73.40;;;;;;5117746;28;20104;-68
2021/09/14 13:46:15;;;;;;;2.65;0.90;;;16.40;73.50;;;;;;5116396;28;20047;-77
2021/09/14 13:48:47;;;;;;;1.95;0.88;;;16.40;74.40;;;;;;5117547;28;20016;-76
2021/09/14 13:51:20;;;;;;;3.97;1.00;;;16.40;73.90;;;;;;5112227;28;20055;-72
2021/09/14 13:53:50;;;;;;;1.83;0.70;;;16.40;73.90;;;;;;5115126;28;20034;-75
2021/09/14 13:56:28;;;;;;;2.53;0.82;;;16.40;73.90;;;;;;5098994;28;20412;-73